Time,TemperatureF,DewpointF,PressureIn,WindDirection,WindDirectionDegrees,WindSpeedMPH,WindSpeedGustMPH,Humidity,HourlyPrecipIn,Conditions,Clouds,dailyrainin,SoftwareType,DateUTC
2013-02-23 00:02:00,3.4,-9.9,31.52,WSW,248,1.0,6.0,53,0.00,,,0.00,meteohub,2013-02-23 07:02:00,
2013-02-23 00:07:00,3.2,-10.1,31.52,SW,225,0.0,3.0,53,0.00,,,0.00,meteohub,2013-02-23 07:07:00,
2013-02-23 00:12:00,2.8,-10.1,31.51,West,270,2.0,3.0,54,0.00,,,0.00,meteohub,2013-02-23 07:12:00,
2013-02-23 00:17:00,2.7,-9.8,31.52,West,270,5.0,5.0,55,0.00,,,0.00,meteohub,2013-02-23 07:17:00,
2013-02-23 00:22:00,3.2,-9.4,31.51,NW,315,3.0,5.0,55,0.00,,,0.00,meteohub,2013-02-23 07:22:00,
2013-02-23 00:27:00,3.6,-9.0,31.51,NW,315,3.0,5.0,55,0.00,,,0.00,meteohub,2013-02-23 07:27:00,
2013-02-23 00:32:00,3.7,-8.5,31.51,West,270,2.0,5.0,56,0.00,,,0.00,meteohub,2013-02-23 07:32:00,
2013-02-23 00:37:00,3.7,-8.5,31.51,SW,225,2.0,4.0,56,0.00,,,0.00,meteohub,2013-02-23 07:37:00,
2013-02-23 00:42:00,3.6,-8.7,31.51,West,270,2.0,3.0,56,0.00,,,0.00,meteohub,2013-02-23 07:42:00,
2013-02-23 00:48:00,3.4,-8.9,31.51,West,270,2.0,4.0,56,0.00,,,0.00,meteohub,2013-02-23 07:48:00,
2013-02-23 00:53:00,3.2,-9.0,31.51,SW,225,2.0,4.0,56,0.00,,,0.00,meteohub,2013-02-23 07:53:00,
2013-02-23 00:59:00,2.7,-9.0,31.51,SSW,203,1.0,4.0,57,0.00,,,0.00,meteohub,2013-02-23 07:59:00,
2013-02-23 01:04:00,2.7,-9.0,31.51,NW,315,2.0,3.0,57,0.00,,,0.00,meteohub,2013-02-23 08:04:00,
2013-02-23 01:10:00,2.3,-9.4,31.51,SW,225,0.0,3.0,57,0.00,,,0.00,meteohub,2013-02-23 08:10:00,
2013-02-23 01:15:00,1.9,-9.8,31.51,West,270,0.0,2.0,57,0.00,,,0.00,meteohub,2013-02-23 08:15:00,
2013-02-23 01:20:00,1.8,-9.9,31.51,NW,315,2.0,2.0,57,0.00,,,0.00,meteohub,2013-02-23 08:20:00,
2013-02-23 01:26:00,1.9,-9.8,31.51,NW,315,2.0,2.0,57,0.00,,,0.00,meteohub,2013-02-23 08:26:00,
2013-02-23 01:31:00,2.5,-9.2,31.50,WNW,293,2.0,7.0,57,0.00,,,0.00,meteohub,2013-02-23 08:31:00,
2013-02-23 01:37:00,2.8,-8.9,31.50,NW,315,4.0,7.0,57,0.00,,,0.00,meteohub,2013-02-23 08:37:00,
2013-02-23 01:42:00,3.0,-9.0,31.50,WSW,248,3.0,5.0,56,0.00,,,0.00,meteohub,2013-02-23 08:42:00,
2013-02-23 01:47:00,3.2,-9.4,31.51,NW,315,2.0,4.0,55,0.00,,,0.00,meteohub,2013-02-23 08:47:00,
2013-02-23 01:52:00,3.2,-9.4,31.50,West,270,3.0,4.0,55,0.00,,,0.00,meteohub,2013-02-23 08:52:00,
2013-02-23 01:57:00,3.0,-9.0,31.50,West,270,4.0,4.0,56,0.00,,,0.00,meteohub,2013-02-23 08:57:00,
2013-02-23 02:02:00,3.2,-9.8,31.51,NW,315,0.0,4.0,54,0.00,,,0.00,meteohub,2013-02-23 09:02:00,
2013-02-23 02:07:00,3.2,-9.8,31.50,NNW,338,2.0,4.0,54,0.00,,,0.00,meteohub,2013-02-23 09:07:00,
2013-02-23 02:12:00,3.2,-9.8,31.50,NW,315,3.0,4.0,54,0.00,,,0.00,meteohub,2013-02-23 09:12:00,
2013-02-23 02:17:00,2.7,-9.8,31.50,West,270,1.0,4.0,55,0.00,,,0.00,meteohub,2013-02-23 09:17:00,
2013-02-23 02:22:00,2.3,-10.1,31.50,West,270,0.0,4.0,55,0.00,,,0.00,meteohub,2013-02-23 09:22:00,
2013-02-23 02:27:00,1.6,-10.8,31.50,NW,315,1.0,3.0,55,0.00,,,0.00,meteohub,2013-02-23 09:27:00,
2013-02-23 02:32:00,1.8,-10.7,31.49,NW,315,2.0,3.0,55,0.00,,,0.00,meteohub,2013-02-23 09:32:00,
2013-02-23 02:38:00,1.9,-10.5,31.50,West,270,2.0,4.0,55,0.00,,,0.00,meteohub,2013-02-23 09:38:00,
2013-02-23 02:43:00,2.3,-10.1,31.50,West,270,4.0,4.0,55,0.00,,,0.00,meteohub,2013-02-23 09:43:00,
2013-02-23 02:48:00,2.3,-10.1,31.49,West,270,7.0,7.0,55,0.00,,,0.00,meteohub,2013-02-23 09:48:00,
2013-02-23 02:54:00,3.2,-9.8,31.49,West,270,4.0,7.0,54,0.00,,,0.00,meteohub,2013-02-23 09:54:00,
2013-02-23 02:59:00,3.2,-9.8,31.50,NW,315,4.0,7.0,54,0.00,,,0.00,meteohub,2013-02-23 09:59:00,
2013-02-23 03:05:00,3.2,-9.8,31.50,West,270,4.0,7.0,54,0.00,,,0.00,meteohub,2013-02-23 10:05:00,
2013-02-23 03:10:00,3.2,-10.1,31.51,NE,45,4.0,4.0,53,0.00,,,0.00,meteohub,2013-02-23 10:10:00,
2013-02-23 03:16:00,3.0,-10.3,31.51,NW,315,3.0,5.0,53,0.00,,,0.00,meteohub,2013-02-23 10:16:00,
2013-02-23 03:22:00,2.8,-10.5,31.51,NW,315,3.0,5.0,53,0.00,,,0.00,meteohub,2013-02-23 10:22:00,
2013-02-23 03:27:00,2.7,-10.7,31.51,West,270,3.0,4.0,53,0.00,,,0.00,meteohub,2013-02-23 10:27:00,
2013-02-23 03:32:00,2.8,-10.1,31.51,NW,315,7.0,7.0,54,0.00,,,0.00,meteohub,2013-02-23 10:32:00,
2013-02-23 03:37:00,3.7,-9.2,31.51,NW,315,5.0,8.0,54,0.00,,,0.00,meteohub,2013-02-23 10:37:00,
2013-02-23 03:42:00,4.3,-8.7,31.50,WNW,293,4.0,8.0,54,0.00,,,0.00,meteohub,2013-02-23 10:42:00,
2013-02-23 03:47:00,4.1,-9.2,31.49,West,270,6.0,8.0,53,0.00,,,0.00,meteohub,2013-02-23 10:47:00,
2013-02-23 03:52:00,3.9,-9.8,31.50,West,270,4.0,6.0,52,0.00,,,0.00,meteohub,2013-02-23 10:52:00,
2013-02-23 03:57:00,3.9,-9.4,31.49,West,270,6.0,6.0,53,0.00,,,0.00,meteohub,2013-02-23 10:57:00,
2013-02-23 04:02:00,4.1,-9.2,31.49,West,270,5.0,10.0,53,0.00,,,0.00,meteohub,2013-02-23 11:02:00,
2013-02-23 04:07:00,4.1,-9.2,31.49,West,270,4.0,10.0,53,0.00,,,0.00,meteohub,2013-02-23 11:07:00,
2013-02-23 04:12:00,4.1,-9.2,31.49,West,270,6.0,7.0,53,0.00,,,0.00,meteohub,2013-02-23 11:12:00,
2013-02-23 04:18:00,3.7,-9.6,31.49,West,270,3.0,7.0,53,0.00,,,0.00,meteohub,2013-02-23 11:18:00,
2013-02-23 04:24:00,3.6,-9.4,31.49,West,270,4.0,7.0,54,0.00,,,0.00,meteohub,2013-02-23 11:24:00,
2013-02-23 04:29:00,3.4,-9.6,31.49,West,270,5.0,6.0,54,0.00,,,0.00,meteohub,2013-02-23 11:29:00,
2013-02-23 04:34:00,3.2,-9.8,31.49,West,270,3.0,6.0,54,0.00,,,0.00,meteohub,2013-02-23 11:34:00,
2013-02-23 04:40:00,3.0,-9.6,31.49,West,270,4.0,5.0,55,0.00,,,0.00,meteohub,2013-02-23 11:40:00,
2013-02-23 04:46:00,3.2,-9.8,31.49,West,270,5.0,6.0,54,0.00,,,0.00,meteohub,2013-02-23 11:46:00,
2013-02-23 04:51:00,3.7,-9.2,31.49,WNW,293,4.0,8.0,54,0.00,,,0.00,meteohub,2013-02-23 11:51:00,
2013-02-23 04:57:00,3.6,-9.4,31.49,West,270,4.0,8.0,54,0.00,,,0.00,meteohub,2013-02-23 11:57:00,
2013-02-23 05:02:00,3.4,-9.6,31.49,West,270,4.0,8.0,54,0.00,,,0.00,meteohub,2013-02-23 12:02:00,
2013-02-23 05:07:00,3.4,-9.6,31.48,West,270,4.0,5.0,54,0.00,,,0.00,meteohub,2013-02-23 12:07:00,
2013-02-23 05:12:00,3.2,-9.8,31.49,West,270,5.0,6.0,54,0.00,,,0.00,meteohub,2013-02-23 12:12:00,
2013-02-23 05:17:00,2.8,-9.6,31.48,West,270,5.0,6.0,55,0.00,,,0.00,meteohub,2013-02-23 12:17:00,
2013-02-23 05:22:00,2.3,-10.1,31.48,NW,315,4.0,6.0,55,0.00,,,0.00,meteohub,2013-02-23 12:22:00,
2013-02-23 05:27:00,2.8,-9.6,31.48,West,270,6.0,7.0,55,0.00,,,0.00,meteohub,2013-02-23 12:27:00,
2013-02-23 05:32:00,3.4,-9.6,31.48,West,270,3.0,7.0,54,0.00,,,0.00,meteohub,2013-02-23 12:32:00,
2013-02-23 05:37:00,3.7,-9.2,31.47,West,270,4.0,9.0,54,0.00,,,0.00,meteohub,2013-02-23 12:37:00,
2013-02-23 05:43:00,4.1,-8.9,31.48,NW,315,7.0,9.0,54,0.00,,,0.00,meteohub,2013-02-23 12:43:00,
2013-02-23 05:48:00,4.3,-8.7,31.47,West,270,4.0,9.0,54,0.00,,,0.00,meteohub,2013-02-23 12:48:00,
2013-02-23 05:53:00,4.1,-9.2,31.47,NW,315,4.0,7.0,53,0.00,,,0.00,meteohub,2013-02-23 12:53:00,
2013-02-23 05:59:00,4.1,-9.2,31.47,NW,315,4.0,7.0,53,0.00,,,0.00,meteohub,2013-02-23 12:59:00,
2013-02-23 06:04:00,4.1,-9.6,31.47,SW,225,4.0,7.0,52,0.00,,,0.00,meteohub,2013-02-23 13:04:00,
2013-02-23 06:09:00,3.7,-9.9,31.47,West,270,4.0,6.0,52,0.00,,,0.00,meteohub,2013-02-23 13:09:00,
2013-02-23 06:15:00,3.4,-10.7,31.47,West,270,4.0,8.0,51,0.00,,,0.00,meteohub,2013-02-23 13:15:00,
2013-02-23 06:20:00,2.7,-11.0,31.47,West,270,4.0,8.0,52,0.00,,,0.00,meteohub,2013-02-23 13:20:00,
2013-02-23 06:26:00,2.5,-11.2,31.47,WNW,293,3.0,6.0,52,0.00,,,0.00,meteohub,2013-02-23 13:26:00,
2013-02-23 06:32:00,2.3,-11.4,31.47,West,270,9.0,9.0,52,0.00,,,0.00,meteohub,2013-02-23 13:32:00,
2013-02-23 06:37:00,2.5,-11.2,31.47,West,270,4.0,9.0,52,0.00,,,0.00,meteohub,2013-02-23 13:37:00,
2013-02-23 06:43:00,2.3,-11.4,31.47,West,270,4.0,9.0,52,0.00,,,0.00,meteohub,2013-02-23 13:43:00,
2013-02-23 06:48:00,2.1,-11.6,31.47,West,270,4.0,9.0,52,0.00,,,0.00,meteohub,2013-02-23 13:48:00,
2013-02-23 06:54:00,2.3,-11.4,31.47,West,270,4.0,4.0,52,0.00,,,0.00,meteohub,2013-02-23 13:54:00,
2013-02-23 07:00:00,2.3,-10.8,31.48,NW,315,4.0,4.0,53,0.00,,,0.00,meteohub,2013-02-23 14:00:00,
2013-02-23 07:06:00,2.3,-10.8,31.47,NW,315,4.0,4.0,53,0.00,,,0.00,meteohub,2013-02-23 14:06:00,
2013-02-23 07:11:00,2.5,-11.2,31.48,NW,315,3.0,4.0,52,0.00,,,0.00,meteohub,2013-02-23 14:11:00,
2013-02-23 07:16:00,3.0,-10.3,31.48,NW,315,4.0,4.0,53,0.00,,,0.00,meteohub,2013-02-23 14:16:00,
2013-02-23 07:21:00,4.1,-9.6,31.47,NW,315,2.0,4.0,52,0.00,,,0.00,meteohub,2013-02-23 14:21:00,
2013-02-23 07:27:00,4.8,-8.9,31.47,West,270,3.0,4.0,52,0.00,,,0.00,meteohub,2013-02-23 14:27:00,
2013-02-23 07:32:00,5.2,-9.4,31.47,West,270,2.0,4.0,50,0.00,,,0.00,meteohub,2013-02-23 14:32:00,
2013-02-23 07:37:00,5.5,-9.4,31.47,West,270,4.0,4.0,49,0.00,,,0.00,meteohub,2013-02-23 14:37:00,
2013-02-23 07:42:00,6.1,-9.4,31.47,West,270,4.0,5.0,48,0.00,,,0.00,meteohub,2013-02-23 14:42:00,
2013-02-23 07:47:00,6.8,-9.2,31.47,West,270,2.0,5.0,47,0.00,,,0.00,meteohub,2013-02-23 14:47:00,
2013-02-23 07:52:00,7.3,-8.7,31.47,NW,315,2.0,5.0,47,0.00,,,0.00,meteohub,2013-02-23 14:52:00,
2013-02-23 07:57:00,8.1,-8.5,31.47,West,270,5.0,5.0,46,0.00,,,0.00,meteohub,2013-02-23 14:57:00,
2013-02-23 08:02:00,8.8,-8.7,31.47,NW,315,5.0,5.0,44,0.00,,,0.00,meteohub,2013-02-23 15:02:00,
2013-02-23 08:07:00,9.3,-8.7,31.47,NW,315,5.0,10.0,43,0.00,,,0.00,meteohub,2013-02-23 15:07:00,
2013-02-23 08:12:00,10.0,-8.0,31.47,NW,315,7.0,10.0,43,0.00,,,0.00,meteohub,2013-02-23 15:12:00,
2013-02-23 08:17:00,11.3,-5.1,31.47,West,270,4.0,8.0,47,0.00,,,0.00,meteohub,2013-02-23 15:17:00,
2013-02-23 08:22:00,13.1,-4.2,31.46,West,270,6.0,8.0,45,0.00,,,0.00,meteohub,2013-02-23 15:22:00,
2013-02-23 08:27:00,14.2,-3.8,31.46,WNW,293,8.0,8.0,44,0.00,,,0.00,meteohub,2013-02-23 15:27:00,
2013-02-23 08:32:00,15.3,-3.3,31.46,West,270,3.0,8.0,43,0.00,,,0.00,meteohub,2013-02-23 15:32:00,
2013-02-23 08:37:00,16.5,-2.6,31.46,NW,315,3.0,8.0,42,0.00,,,0.00,meteohub,2013-02-23 15:37:00,
2013-02-23 08:42:00,17.8,-3.5,31.47,West,270,4.0,8.0,38,0.00,,,0.00,meteohub,2013-02-23 15:42:00,
2013-02-23 08:48:00,19.2,-3.5,31.46,West,270,3.0,5.0,36,0.00,,,0.00,meteohub,2013-02-23 15:48:00,
2013-02-23 08:54:00,20.3,-0.8,31.46,NW,315,2.0,5.0,39,0.00,,,0.00,meteohub,2013-02-23 15:54:00,
2013-02-23 08:59:00,21.9,0.1,31.47,NW,315,2.0,5.0,38,0.00,,,0.00,meteohub,2013-02-23 15:59:00,
2013-02-23 09:05:00,22.1,-0.2,31.46,North,0,4.0,5.0,37,0.00,,,0.00,meteohub,2013-02-23 16:05:00,
2013-02-23 09:10:00,23.9,-1.1,31.46,SW,225,3.0,4.0,33,0.00,,,0.00,meteohub,2013-02-23 16:10:00,
2013-02-23 09:16:00,24.3,-1.3,31.46,South,180,2.0,4.0,32,0.00,,,0.00,meteohub,2013-02-23 16:16:00,
2013-02-23 09:21:00,24.8,-0.9,31.46,NNE,23,1.0,4.0,32,0.00,,,0.00,meteohub,2013-02-23 16:21:00,
2013-02-23 09:26:00,26.1,0.1,31.45,NE,45,3.0,3.0,32,0.00,,,0.00,meteohub,2013-02-23 16:26:00,
2013-02-23 09:31:00,25.7,-1.5,31.45,West,270,3.0,4.0,30,0.00,,,0.00,meteohub,2013-02-23 16:31:00,
2013-02-23 09:36:00,25.9,-1.3,31.44,NE,45,0.0,4.0,30,0.00,,,0.00,meteohub,2013-02-23 16:36:00,
2013-02-23 09:42:00,26.1,-1.1,31.44,NW,315,3.0,5.0,30,0.00,,,0.00,meteohub,2013-02-23 16:42:00,
2013-02-23 09:47:00,26.8,-1.3,31.44,North,0,2.0,5.0,29,0.00,,,0.00,meteohub,2013-02-23 16:47:00,
2013-02-23 09:52:00,26.2,-1.7,31.45,NNE,23,3.0,4.0,29,0.00,,,0.00,meteohub,2013-02-23 16:52:00,
2013-02-23 09:57:00,25.2,-3.5,31.44,West,270,4.0,4.0,28,0.00,,,0.00,meteohub,2013-02-23 16:57:00,
2013-02-23 10:02:00,24.4,-2.6,31.44,NE,45,3.0,4.0,30,0.00,,,0.00,meteohub,2013-02-23 17:02:00,
2013-02-23 10:07:00,24.3,-2.0,31.44,NW,315,2.0,4.0,31,0.00,,,0.00,meteohub,2013-02-23 17:07:00,
2013-02-23 10:12:00,25.2,-0.6,31.44,NNW,338,3.0,4.0,32,0.00,,,0.00,meteohub,2013-02-23 17:12:00,
2013-02-23 10:17:00,27.1,0.5,31.44,NW,315,2.0,4.0,31,0.00,,,0.00,meteohub,2013-02-23 17:17:00,
2013-02-23 10:22:00,29.7,4.6,31.44,SE,135,2.0,4.0,34,0.00,,,0.00,meteohub,2013-02-23 17:22:00,
2013-02-23 10:27:00,30.6,3.6,31.44,NW,315,4.0,4.0,31,0.00,,,0.00,meteohub,2013-02-23 17:27:00,
2013-02-23 10:32:00,31.3,4.1,31.44,WNW,293,2.0,5.0,31,0.00,,,0.00,meteohub,2013-02-23 17:32:00,
2013-02-23 10:37:00,31.6,4.5,31.44,North,0,5.0,5.0,31,0.00,,,0.00,meteohub,2013-02-23 17:37:00,
2013-02-23 10:42:00,31.5,3.6,31.43,North,0,3.0,5.0,30,0.00,,,0.00,meteohub,2013-02-23 17:42:00,
2013-02-23 10:48:00,31.6,3.7,31.43,North,0,3.0,5.0,30,0.00,,,0.00,meteohub,2013-02-23 17:48:00,
2013-02-23 10:54:00,32.5,4.5,31.43,North,0,7.0,7.0,30,0.00,,,0.00,meteohub,2013-02-23 17:54:00,
2013-02-23 10:59:00,33.6,5.5,31.43,NW,315,3.0,7.0,30,0.00,,,0.00,meteohub,2013-02-23 17:59:00,
2013-02-23 11:04:00,33.6,5.5,31.43,NW,315,3.0,7.0,30,0.00,,,0.00,meteohub,2013-02-23 18:04:00,
2013-02-23 11:10:00,33.8,4.8,31.43,NE,45,4.0,7.0,29,0.00,,,0.00,meteohub,2013-02-23 18:10:00,
2013-02-23 11:15:00,34.9,6.6,31.43,NW,315,2.0,4.0,30,0.00,,,0.00,meteohub,2013-02-23 18:15:00,
2013-02-23 11:21:00,34.5,6.3,31.42,ENE,68,2.0,5.0,30,0.00,,,0.00,meteohub,2013-02-23 18:21:00,
2013-02-23 11:26:00,34.7,6.4,31.42,NE,45,3.0,5.0,30,0.00,,,0.00,meteohub,2013-02-23 18:26:00,
2013-02-23 11:32:00,34.7,6.4,31.42,NE,45,4.0,5.0,30,0.00,,,0.00,meteohub,2013-02-23 18:32:00,
2013-02-23 11:37:00,35.8,7.3,31.42,East,90,3.0,6.0,30,0.00,,,0.00,meteohub,2013-02-23 18:37:00,
2013-02-23 11:42:00,35.4,6.3,31.41,ENE,68,4.0,6.0,29,0.00,,,0.00,meteohub,2013-02-23 18:42:00,
2013-02-23 11:47:00,34.5,4.8,31.41,North,0,1.0,8.0,28,0.00,,,0.00,meteohub,2013-02-23 18:47:00,
2013-02-23 11:53:00,34.9,5.9,31.40,East,90,2.0,8.0,29,0.00,,,0.00,meteohub,2013-02-23 18:53:00,
2013-02-23 11:58:00,34.3,5.4,31.40,East,90,5.0,8.0,29,0.00,,,0.00,meteohub,2013-02-23 18:58:00,
2013-02-23 12:04:00,34.9,7.3,31.40,NE,45,6.0,8.0,31,0.00,,,0.00,meteohub,2013-02-23 19:04:00,
2013-02-23 12:10:00,35.4,7.0,31.40,NE,45,5.0,8.0,30,0.00,,,0.00,meteohub,2013-02-23 19:10:00,
2013-02-23 12:15:00,34.5,5.5,31.39,NE,45,7.0,8.0,29,0.00,,,0.00,meteohub,2013-02-23 19:15:00,
2013-02-23 12:21:00,34.3,6.1,31.39,NE,45,5.0,8.0,30,0.00,,,0.00,meteohub,2013-02-23 19:21:00,
2013-02-23 12:26:00,34.3,7.5,31.39,NE,45,7.0,8.0,32,0.00,,,0.00,meteohub,2013-02-23 19:26:00,
2013-02-23 12:32:00,34.0,7.9,31.39,NE,45,7.0,9.0,33,0.00,,,0.00,meteohub,2013-02-23 19:32:00,
2013-02-23 12:37:00,33.4,8.8,31.39,SE,135,6.0,9.0,35,0.00,,,0.00,meteohub,2013-02-23 19:37:00,
2013-02-23 12:42:00,34.3,9.5,31.39,East,90,4.0,9.0,35,0.00,,,0.00,meteohub,2013-02-23 19:42:00,
2013-02-23 12:47:00,35.8,10.2,31.38,SE,135,2.0,8.0,34,0.00,,,0.00,meteohub,2013-02-23 19:47:00,
2013-02-23 12:53:00,36.9,9.7,31.38,SE,135,5.0,8.0,32,0.00,,,0.00,meteohub,2013-02-23 19:53:00,
2013-02-23 12:58:00,37.0,9.9,31.38,East,90,2.0,6.0,32,0.00,,,0.00,meteohub,2013-02-23 19:58:00,
2013-02-23 13:04:00,37.2,10.0,31.37,North,0,4.0,6.0,32,0.00,,,0.00,meteohub,2013-02-23 20:04:00,
2013-02-23 13:10:00,36.7,9.5,31.36,SW,225,4.0,6.0,32,0.00,,,0.00,meteohub,2013-02-23 20:10:00,
2013-02-23 13:15:00,37.2,9.3,31.36,SW,225,3.0,5.0,31,0.00,,,0.00,meteohub,2013-02-23 20:15:00,
2013-02-23 13:21:00,38.5,12.6,31.36,NE,45,5.0,7.0,34,0.00,,,0.00,meteohub,2013-02-23 20:21:00,
2013-02-23 13:26:00,38.8,13.5,31.36,West,270,3.0,7.0,35,0.00,,,0.00,meteohub,2013-02-23 20:26:00,
2013-02-23 13:32:00,39.2,11.8,31.35,SW,225,4.0,7.0,32,0.00,,,0.00,meteohub,2013-02-23 20:32:00,
2013-02-23 13:37:00,39.7,12.2,31.34,East,90,3.0,7.0,32,0.00,,,0.00,meteohub,2013-02-23 20:37:00,
2013-02-23 13:42:00,39.6,12.2,31.34,South,180,7.0,8.0,32,0.00,,,0.00,meteohub,2013-02-23 20:42:00,
2013-02-23 13:47:00,39.6,12.7,31.34,SSW,203,4.0,9.0,33,0.00,,,0.00,meteohub,2013-02-23 20:47:00,
2013-02-23 13:53:00,39.4,12.7,31.34,South,180,10.0,10.0,33,0.00,,,0.00,meteohub,2013-02-23 20:53:00,
2013-02-23 13:58:00,39.2,11.8,31.33,SE,135,6.0,10.0,32,0.00,,,0.00,meteohub,2013-02-23 20:58:00,
2013-02-23 14:04:00,38.8,12.2,31.34,West,270,4.0,10.0,33,0.00,,,0.00,meteohub,2013-02-23 21:04:00,
2013-02-23 14:09:00,39.4,13.3,31.34,South,180,7.0,12.0,34,0.00,,,0.00,meteohub,2013-02-23 21:09:00,
2013-02-23 14:15:00,39.6,12.7,31.34,NE,45,9.0,12.0,33,0.00,,,0.00,meteohub,2013-02-23 21:15:00,
2013-02-23 14:20:00,39.6,12.2,31.34,East,90,7.0,12.0,32,0.00,,,0.00,meteohub,2013-02-23 21:20:00,
2013-02-23 14:26:00,38.7,11.3,31.34,WNW,293,4.0,9.0,32,0.00,,,0.00,meteohub,2013-02-23 21:26:00,
2013-02-23 14:31:00,39.2,11.1,31.34,SW,225,4.0,9.0,31,0.00,,,0.00,meteohub,2013-02-23 21:31:00,
2013-02-23 14:37:00,39.4,12.0,31.34,West,270,4.0,9.0,32,0.00,,,0.00,meteohub,2013-02-23 21:37:00,
2013-02-23 14:42:00,39.7,11.5,31.34,SSW,203,4.0,10.0,31,0.00,,,0.00,meteohub,2013-02-23 21:42:00,
2013-02-23 14:47:00,38.7,10.6,31.34,South,180,2.0,10.0,31,0.00,,,0.00,meteohub,2013-02-23 21:47:00,
2013-02-23 14:52:00,37.2,6.3,31.34,SW,225,0.0,11.0,27,0.00,,,0.00,meteohub,2013-02-23 21:52:00,
2013-02-23 14:57:00,37.2,6.3,31.34,South,180,3.0,11.0,27,0.00,,,0.00,meteohub,2013-02-23 21:57:00,
2013-02-23 15:03:00,36.9,5.9,31.34,South,180,4.0,11.0,27,0.00,,,0.00,meteohub,2013-02-23 22:03:00,
2013-02-23 15:08:00,36.0,6.1,31.33,West,270,6.0,6.0,28,0.00,,,0.00,meteohub,2013-02-23 22:08:00,
2013-02-23 15:13:00,35.6,6.4,31.34,SW,225,4.0,6.0,29,0.00,,,0.00,meteohub,2013-02-23 22:13:00,
2013-02-23 15:19:00,35.6,7.2,31.34,South,180,7.0,7.0,30,0.00,,,0.00,meteohub,2013-02-23 22:19:00,
2013-02-23 15:25:00,35.4,7.7,31.34,SW,225,4.0,8.0,31,0.00,,,0.00,meteohub,2013-02-23 22:25:00,
2013-02-23 15:30:00,35.6,7.9,31.34,South,180,3.0,8.0,31,0.00,,,0.00,meteohub,2013-02-23 22:30:00,
2013-02-23 15:35:00,35.6,7.9,31.33,NNW,338,3.0,8.0,31,0.00,,,0.00,meteohub,2013-02-23 22:35:00,
2013-02-23 15:40:00,35.1,8.2,31.33,West,270,8.0,8.0,32,0.00,,,0.00,meteohub,2013-02-23 22:40:00,
2013-02-23 15:46:00,34.9,8.1,31.32,SSW,203,7.0,8.0,32,0.00,,,0.00,meteohub,2013-02-23 22:46:00,
2013-02-23 15:52:00,34.2,8.1,31.32,West,270,2.0,8.0,33,0.00,,,0.00,meteohub,2013-02-23 22:52:00,
2013-02-23 15:57:00,33.6,9.0,31.32,South,180,7.0,8.0,35,0.00,,,0.00,meteohub,2013-02-23 22:57:00,
2013-02-23 16:02:00,33.4,9.3,31.31,South,180,7.0,8.0,36,0.00,,,0.00,meteohub,2013-02-23 23:02:00,
2013-02-23 16:07:00,32.9,8.2,31.31,South,180,4.0,8.0,35,0.00,,,0.00,meteohub,2013-02-23 23:07:00,
2013-02-23 16:12:00,32.4,7.7,31.31,SE,135,3.0,8.0,35,0.00,,,0.00,meteohub,2013-02-23 23:12:00,
2013-02-23 16:17:00,31.6,9.5,31.31,SW,225,4.0,10.0,39,0.00,,,0.00,meteohub,2013-02-23 23:17:00,
2013-02-23 16:22:00,30.7,8.1,31.31,NNE,23,3.0,10.0,38,0.00,,,0.00,meteohub,2013-02-23 23:22:00,
2013-02-23 16:27:00,30.4,7.2,31.31,South,180,3.0,10.0,37,0.00,,,0.00,meteohub,2013-02-23 23:27:00,
2013-02-23 16:32:00,30.2,7.7,31.31,SE,135,4.0,6.0,38,0.00,,,0.00,meteohub,2013-02-23 23:32:00,
2013-02-23 16:37:00,30.2,6.4,31.31,SW,225,6.0,6.0,36,0.00,,,0.00,meteohub,2013-02-23 23:37:00,
2013-02-23 16:43:00,30.4,4.6,31.31,SE,135,5.0,6.0,33,0.00,,,0.00,meteohub,2013-02-23 23:43:00,
2013-02-23 16:49:00,29.8,3.6,31.31,South,180,8.0,9.0,32,0.00,,,0.00,meteohub,2013-02-23 23:49:00,
2013-02-23 16:54:00,29.7,2.7,31.31,SW,225,8.0,9.0,31,0.00,,,0.00,meteohub,2013-02-23 23:54:00,
2013-02-23 17:00:00,29.3,3.0,31.31,SW,225,2.0,9.0,32,0.00,,,0.00,meteohub,2013-02-24 00:00:00,
2013-02-23 17:05:00,28.9,2.8,31.31,SW,225,4.0,9.0,32,0.00,,,0.00,meteohub,2013-02-24 00:05:00,
2013-02-23 17:11:00,28.4,3.6,31.31,NNW,338,7.0,10.0,34,0.00,,,0.00,meteohub,2013-02-24 00:11:00,
2013-02-23 17:16:00,28.0,1.9,31.31,West,270,4.0,10.0,32,0.00,,,0.00,meteohub,2013-02-24 00:16:00,
2013-02-23 17:22:00,27.7,3.0,31.31,South,180,9.0,10.0,34,0.00,,,0.00,meteohub,2013-02-24 00:22:00,
2013-02-23 17:27:00,27.3,5.0,31.31,WNW,293,8.0,11.0,38,0.00,,,0.00,meteohub,2013-02-24 00:27:00,
2013-02-23 17:32:00,26.8,7.3,31.31,WSW,248,4.0,11.0,43,0.00,,,0.00,meteohub,2013-02-24 00:32:00,
2013-02-23 17:38:00,26.2,8.8,31.32,NNW,338,8.0,12.0,47,0.00,,,0.00,meteohub,2013-02-24 00:38:00,
2013-02-23 17:43:00,25.9,9.3,31.31,SW,225,3.0,12.0,49,0.00,,,0.00,meteohub,2013-02-24 00:43:00,
2013-02-23 17:49:00,25.7,9.1,31.32,East,90,3.0,8.0,49,0.00,,,0.00,meteohub,2013-02-24 00:49:00,
2013-02-23 17:54:00,25.3,9.3,31.32,South,180,4.0,8.0,50,0.00,,,0.00,meteohub,2013-02-24 00:54:00,
2013-02-23 18:00:00,25.2,9.5,31.32,SE,135,5.0,6.0,51,0.00,,,0.00,meteohub,2013-02-24 01:00:00,
2013-02-23 18:05:00,25.0,9.9,31.32,SSE,158,5.0,6.0,52,0.00,,,0.00,meteohub,2013-02-24 01:05:00,
2013-02-23 18:10:00,24.6,10.4,31.32,South,180,2.0,6.0,54,0.00,,,0.00,meteohub,2013-02-24 01:10:00,
2013-02-23 18:16:00,24.1,9.9,31.32,South,180,4.0,6.0,54,0.00,,,0.00,meteohub,2013-02-24 01:16:00,
2013-02-23 18:21:00,23.7,9.9,31.33,East,90,4.0,6.0,55,0.00,,,0.00,meteohub,2013-02-24 01:21:00,
2013-02-23 18:27:00,23.4,10.0,31.32,SE,135,4.0,4.0,56,0.00,,,0.00,meteohub,2013-02-24 01:27:00,
2013-02-23 18:32:00,23.0,9.7,31.32,South,180,4.0,4.0,56,0.00,,,0.00,meteohub,2013-02-24 01:32:00,
2013-02-23 18:37:00,22.8,9.9,31.32,South,180,2.0,4.0,57,0.00,,,0.00,meteohub,2013-02-24 01:37:00,
2013-02-23 18:43:00,22.8,9.9,31.32,SE,135,2.0,4.0,57,0.00,,,0.00,meteohub,2013-02-24 01:43:00,
2013-02-23 18:48:00,22.6,9.3,31.32,SE,135,2.0,4.0,56,0.00,,,0.00,meteohub,2013-02-24 01:48:00,
2013-02-23 18:54:00,22.5,9.1,31.31,SE,135,2.0,4.0,56,0.00,,,0.00,meteohub,2013-02-24 01:54:00,
2013-02-23 19:00:00,22.5,9.1,31.32,South,180,1.0,4.0,56,0.00,,,0.00,meteohub,2013-02-24 02:00:00,
2013-02-23 19:05:00,22.1,8.8,31.32,SW,225,0.0,3.0,56,0.00,,,0.00,meteohub,2013-02-24 02:05:00,
2013-02-23 19:10:00,21.9,9.3,31.32,East,90,4.0,13.0,58,0.00,,,0.00,meteohub,2013-02-24 02:10:00,
2013-02-23 19:16:00,21.7,10.4,31.31,South,180,6.0,13.0,61,0.00,,,0.00,meteohub,2013-02-24 02:16:00,
2013-02-23 19:21:00,21.7,10.4,31.31,South,180,6.0,13.0,61,0.00,,,0.00,meteohub,2013-02-24 02:21:00,
2013-02-23 19:27:00,21.0,11.1,31.30,SE,135,8.0,10.0,65,0.00,,,0.00,meteohub,2013-02-24 02:27:00,
2013-02-23 19:32:00,20.7,10.8,31.31,SE,135,10.0,10.0,65,0.00,,,0.00,meteohub,2013-02-24 02:32:00,
2013-02-23 19:37:00,20.3,10.8,31.30,SE,135,9.0,10.0,66,0.00,,,0.00,meteohub,2013-02-24 02:37:00,
2013-02-23 19:42:00,19.8,10.6,31.30,SSW,203,6.0,10.0,67,0.00,,,0.00,meteohub,2013-02-24 02:42:00,
2013-02-23 19:47:00,19.4,10.2,31.31,SE,135,4.0,10.0,67,0.00,,,0.00,meteohub,2013-02-24 02:47:00,
2013-02-23 19:52:00,19.0,9.0,31.31,South,180,3.0,9.0,64,0.00,,,0.00,meteohub,2013-02-24 02:52:00,
2013-02-23 19:58:00,18.7,8.6,31.31,East,90,7.0,8.0,64,0.00,,,0.00,meteohub,2013-02-24 02:58:00,
2013-02-23 20:03:00,18.1,8.4,31.31,SE,135,4.0,8.0,65,0.00,,,0.00,meteohub,2013-02-24 03:03:00,
2013-02-23 20:09:00,17.8,8.1,31.31,South,180,5.0,7.0,65,0.00,,,0.00,meteohub,2013-02-24 03:09:00,
2013-02-23 20:15:00,17.6,8.2,31.31,SE,135,5.0,7.0,66,0.00,,,0.00,meteohub,2013-02-24 03:15:00,
2013-02-23 20:20:00,17.2,8.2,31.31,ESE,113,4.0,8.0,67,0.00,,,0.00,meteohub,2013-02-24 03:20:00,
2013-02-23 20:26:00,17.2,8.4,31.32,SE,135,6.0,8.0,68,0.00,,,0.00,meteohub,2013-02-24 03:26:00,
2013-02-23 20:31:00,17.1,8.6,31.32,SE,135,8.0,8.0,69,0.00,,,0.00,meteohub,2013-02-24 03:31:00,
2013-02-23 20:37:00,17.1,8.6,31.32,East,90,2.0,8.0,69,0.00,,,0.00,meteohub,2013-02-24 03:37:00,
2013-02-23 20:42:00,17.1,8.6,31.31,West,270,1.0,8.0,69,0.00,,,0.00,meteohub,2013-02-24 03:42:00,
2013-02-23 20:48:00,16.9,8.2,31.32,NW,315,0.0,8.0,68,0.00,,,0.00,meteohub,2013-02-24 03:48:00,
2013-02-23 20:53:00,16.5,7.5,31.32,West,270,1.0,4.0,67,0.00,,,0.00,meteohub,2013-02-24 03:53:00,
2013-02-23 20:58:00,16.3,7.3,31.31,South,180,0.0,3.0,67,0.00,,,0.00,meteohub,2013-02-24 03:58:00,
2013-02-23 21:03:00,16.3,7.0,31.31,SW,225,0.0,3.0,66,0.00,,,0.00,meteohub,2013-02-24 04:03:00,
2013-02-23 21:09:00,15.4,6.1,31.31,SW,225,0.0,3.0,66,0.00,,,0.00,meteohub,2013-02-24 04:09:00,
2013-02-23 21:14:00,15.1,5.7,31.31,North,0,0.0,0.0,66,0.00,,,0.00,meteohub,2013-02-24 04:14:00,
2013-02-23 21:20:00,14.9,5.5,31.31,NW,315,0.0,2.0,66,0.00,,,0.00,meteohub,2013-02-24 04:20:00,
2013-02-23 21:26:00,14.7,5.7,31.31,SW,225,0.0,2.0,67,0.00,,,0.00,meteohub,2013-02-24 04:26:00,
2013-02-23 21:31:00,14.5,5.5,31.31,West,270,0.0,1.0,67,0.00,,,0.00,meteohub,2013-02-24 04:31:00,
2013-02-23 21:36:00,14.4,5.7,31.31,West,270,0.0,1.0,68,0.00,,,0.00,meteohub,2013-02-24 04:36:00,
2013-02-23 21:42:00,14.5,6.3,31.31,SW,225,0.0,1.0,69,0.00,,,0.00,meteohub,2013-02-24 04:42:00,
2013-02-23 21:47:00,14.5,6.3,31.31,West,270,0.0,0.0,69,0.00,,,0.00,meteohub,2013-02-24 04:47:00,
2013-02-23 21:52:00,14.9,6.6,31.31,NW,315,0.0,1.0,69,0.00,,,0.00,meteohub,2013-02-24 04:52:00,
2013-02-23 21:58:00,15.1,6.8,31.31,SW,225,0.0,1.0,69,0.00,,,0.00,meteohub,2013-02-24 04:58:00,
2013-02-23 22:00:00,15.3,7.0,31.31,SW,225,0.0,1.0,69,0.00,,,0.00,meteohub,2013-02-24 05:00:00,
2013-02-23 22:01:00,15.3,7.0,31.31,SW,225,0.0,1.0,69,0.00,,,0.00,meteohub,2013-02-24 05:01:00,
2013-02-23 22:03:00,15.1,6.8,31.31,SW,225,0.0,1.0,69,0.00,,,0.00,meteohub,2013-02-24 05:03:00,
2013-02-23 22:07:00,15.1,6.4,31.31,SW,225,0.0,0.0,68,0.00,,,0.00,meteohub,2013-02-24 05:07:00,
2013-02-23 22:12:00,14.9,6.3,31.31,SE,135,0.0,0.0,68,0.00,,,0.00,meteohub,2013-02-24 05:12:00,
2013-02-23 22:17:00,14.7,6.1,31.30,SW,225,0.0,1.0,68,0.00,,,0.00,meteohub,2013-02-24 05:17:00,
2013-02-23 22:22:00,14.9,6.3,31.30,West,270,0.0,1.0,68,0.00,,,0.00,meteohub,2013-02-24 05:22:00,
2013-02-23 22:27:00,14.7,6.1,31.30,East,90,0.0,1.0,68,0.00,,,0.00,meteohub,2013-02-24 05:27:00,
2013-02-23 22:32:00,14.7,6.4,31.30,SW,225,0.0,0.0,69,0.00,,,0.00,meteohub,2013-02-24 05:32:00,
2013-02-23 22:38:00,14.7,6.4,31.30,SW,225,0.0,0.0,69,0.00,,,0.00,meteohub,2013-02-24 05:38:00,
2013-02-23 22:43:00,14.7,6.4,31.30,SW,225,0.0,0.0,69,0.00,,,0.00,meteohub,2013-02-24 05:43:00,
2013-02-23 22:49:00,14.7,6.4,31.30,NE,45,0.0,0.0,69,0.00,,,0.00,meteohub,2013-02-24 05:49:00,
2013-02-23 22:54:00,14.5,6.3,31.30,West,270,0.0,0.0,69,0.00,,,0.00,meteohub,2013-02-24 05:54:00,
2013-02-23 23:00:00,14.4,6.1,31.29,NE,45,0.0,0.0,69,0.00,,,0.00,meteohub,2013-02-24 06:00:00,
2013-02-23 23:06:00,14.4,6.1,31.30,NE,45,0.0,1.0,69,0.00,,,0.00,meteohub,2013-02-24 06:06:00,
2013-02-23 23:11:00,14.2,5.9,31.29,West,270,0.0,1.0,69,0.00,,,0.00,meteohub,2013-02-24 06:11:00,
2013-02-23 23:17:00,14.0,5.7,31.29,West,270,0.0,0.0,69,0.00,,,0.00,meteohub,2013-02-24 06:17:00,
2013-02-23 23:22:00,13.8,5.9,31.29,West,270,0.0,0.0,70,0.00,,,0.00,meteohub,2013-02-24 06:22:00,
2013-02-23 23:27:00,13.6,5.7,31.29,SE,135,0.0,0.0,70,0.00,,,0.00,meteohub,2013-02-24 06:27:00,
2013-02-23 23:32:00,13.5,5.5,31.30,West,270,0.0,0.0,70,0.00,,,0.00,meteohub,2013-02-24 06:32:00,
2013-02-23 23:37:00,13.3,5.4,31.30,West,270,0.0,0.0,70,0.00,,,0.00,meteohub,2013-02-24 06:37:00,
2013-02-23 23:42:00,13.1,5.2,31.30,West,270,0.0,0.0,70,0.00,,,0.00,meteohub,2013-02-24 06:42:00,
2013-02-23 23:48:00,13.1,5.2,31.29,West,270,0.0,2.0,70,0.00,,,0.00,meteohub,2013-02-24 06:48:00,
2013-02-23 23:54:00,13.1,5.2,31.29,West,270,0.0,2.0,70,0.00,,,0.00,meteohub,2013-02-24 06:54:00,
2013-02-23 23:59:00,13.1,5.2,31.29,West,270,0.0,2.0,70,0.00,,,0.00,meteohub,2013-02-24 06:59:00,